Saginaw — VF2560 — position and weather

sailwx.info

Track history (hours):
 
Tides and Currents Weather Stations Pressure Air Temp Water Temp Dewpoint Dewpoint Depression Visibility Wind Speed Wind Dir Waves Ship Positions

Saginaw

Last reported at 2018-May-12 23:32 UTC. Time now 2018-May-22 19:26 UTC.
Position N 46°51' W 091°42'.
Warning: this ship's position is 9 days out of date.

Length 193 m; draft 8 m.

Type: Ship. MMSI: 316004950.

Date/timePositionNaut miles runAvg speedWind from/ knotsBaromVisibWave heightAir tempDewpointWater temp
2018-May-12 23:32N 46°51' W 091°42'013.7
2018-May-12 23:30N 46°50' W 091°42'713.6
2018-May-12 23:01N 46°47' W 091°51'713.5
2018-May-12 22:31N 46°43' W 091°59'2 4.0
2018-May-12 21:59N 46°42' W 092°01'0 0.0
2018-May-12 21:31N 46°42' W 092°01'0 0.0
2018-May-12 21:00N 46°42' W 092°01'0 0.0
2018-May-12 20:30N 46°42' W 092°01'0 0.0
2018-May-12 20:00N 46°42' W 092°01'0 0.0
2018-May-12 19:27N 46°42' W 092°01'0 0.0
2018-May-12 19:00N 46°42' W 092°01'0 0.0
2018-May-12 18:30N 46°42' W 092°01'0 0.0
2018-May-12 18:00N 46°42' W 092°01'0 0.0
2018-May-12 17:29N 46°42' W 092°01'0 0.0
2018-May-12 16:59N 46°42' W 092°01'0 0.0
2018-May-12 16:30N 46°42' W 092°01'0 0.0
2018-May-12 16:00N 46°42' W 092°01'0 0.0
2018-May-12 15:30N 46°42' W 092°01'0 0.0
2018-May-12 15:00N 46°42' W 092°01'0 0.0
2018-May-12 14:30N 46°42' W 092°01'0 0.1
2018-May-12 14:00N 46°42' W 092°01'3 5.2
2018-May-12 13:30N 46°44' W 091°58'714.4
2018-May-12 13:00N 46°47' W 091°49'714.6
2018-May-12 12:30N 46°50' W 091°39'  
2018-May-10 07:28N 46°50' W 091°42'613.9
2018-May-10 07:00N 46°47' W 091°50'713.9
2018-May-10 06:30N 46°44' W 091°58'3 5.7
2018-May-10 06:00N 46°43' W 092°02'3 5.1
2018-May-10 05:30N 46°44' W 092°05'2 2.7
2018-May-10 04:56N 46°45' W 092°07'1 1.6
2018-May-10 04:26N 46°45' W 092°08'0 0.0
2018-May-10 03:59N 46°45' W 092°08'0 0.0
2018-May-10 03:26N 46°45' W 092°08'0 0.0
2018-May-10 02:59N 46°45' W 092°08'0 0.0
2018-May-10 02:29N 46°45' W 092°08'0 0.0
2018-May-10 01:56N 46°45' W 092°08'0 0.0
2018-May-10 01:29N 46°45' W 092°08'0 0.0
2018-May-10 00:44N 46°45' W 092°08'0 0.0
2018-May-10 00:29N 46°45' W 092°08'0 0.0
2018-May-09 23:59N 46°45' W 092°08'0 0.0
2018-May-09 23:29N 46°45' W 092°08'0 0.0
2018-May-09 22:59N 46°45' W 092°08'0 0.0
2018-May-09 22:29N 46°45' W 092°08'0 0.0
2018-May-09 21:47N 46°45' W 092°08'0 0.0
2018-May-09 21:29N 46°45' W 092°08'0 0.0
2018-May-09 20:59N 46°45' W 092°08'0 0.0
2018-May-09 20:29N 46°45' W 092°08'0 0.0
2018-May-09 19:20N 46°45' W 092°08'0 0.0
2018-May-09 18:50N 46°45' W 092°08'0 0.0
2018-May-09 18:17N 46°45' W 092°08'0 0.0
2018-May-09 17:53N 46°45' W 092°08'0 0.0
2018-May-09 17:20N 46°45' W 092°08'0 0.0
2018-May-09 16:53N 46°45' W 092°08'0 0.6
2018-May-09 16:23N 46°45' W 092°08'1 2.2
2018-May-09 16:00N 46°45' W 092°07'1 2.1
2018-May-09 15:20N 46°46' W 092°06'0 0.0
2018-May-09 14:56N 46°46' W 092°06'0 0.0
2018-May-09 14:23N 46°46' W 092°06'0 0.0
2018-May-09 13:53N 46°46' W 092°06'0 0.0
2018-May-09 13:26N 46°46' W 092°06'0 0.0
2018-May-09 12:53N 46°46' W 092°06'0 0.0
2018-May-09 12:20N 46°46' W 092°06'0 0.0
2018-May-09 11:53N 46°46' W 092°06'0 0.0
2018-May-09 11:26N 46°46' W 092°06'0 0.0
2018-May-09 10:59N 46°46' W 092°06'0 0.0
2018-May-09 10:26N 46°46' W 092°06'0 0.0
2018-May-09 09:53N 46°46' W 092°06'0 0.0
2018-May-09 09:23N 46°46' W 092°06'0 0.0
2018-May-09 08:59N 46°46' W 092°06'0 0.0
2018-May-09 08:29N 46°46' W 092°06'0 0.0
2018-May-09 07:59N 46°46' W 092°06'0 0.0
2018-May-09 07:29N 46°46' W 092°06'0 0.0
2018-May-09 07:00N 46°46' W 092°06'0 0.1
2018-May-09 06:30N 46°46' W 092°06'0 0.5
2018-May-09 06:00N 46°46' W 092°06'1 2.7
2018-May-09 05:30N 46°47' W 092°05'2 3.5
2018-May-09 05:00N 46°48' W 092°02'2 3.9
2018-May-09 04:30N 46°48' W 091°60'613.1
2018-May-09 04:00N 46°51' W 091°51'  
Track history (hours):
 
Tides and Currents Weather Stations Pressure Air Temp Water Temp Dewpoint Dewpoint Depression Visibility Wind Speed Wind Dir Waves Ship Positions

Saginaw

Last reported at 2018-May-12 23:32 UTC. Time now 2018-May-22 19:26 UTC.
Position N 46°51' W 091°42'.
Warning: this ship's position is 9 days out of date.

Length 193 m; draft 8 m.

Type: Ship. MMSI: 316004950.

Date/timePositionNaut miles runAvg speedWind from/ knotsBaromVisibWave heightAir tempDewpointWater temp
2018-May-12 23:32N 46°51' W 091°42'013.7
2018-May-12 23:30N 46°50' W 091°42'713.6
2018-May-12 23:01N 46°47' W 091°51'713.5
2018-May-12 22:31N 46°43' W 091°59'2 4.0
2018-May-12 21:59N 46°42' W 092°01'0 0.0
2018-May-12 21:31N 46°42' W 092°01'0 0.0
2018-May-12 21:00N 46°42' W 092°01'0 0.0
2018-May-12 20:30N 46°42' W 092°01'0 0.0
2018-May-12 20:00N 46°42' W 092°01'0 0.0
2018-May-12 19:27N 46°42' W 092°01'0 0.0
2018-May-12 19:00N 46°42' W 092°01'0 0.0
2018-May-12 18:30N 46°42' W 092°01'0 0.0
2018-May-12 18:00N 46°42' W 092°01'0 0.0
2018-May-12 17:29N 46°42' W 092°01'0 0.0
2018-May-12 16:59N 46°42' W 092°01'0 0.0
2018-May-12 16:30N 46°42' W 092°01'0 0.0
2018-May-12 16:00N 46°42' W 092°01'0 0.0
2018-May-12 15:30N 46°42' W 092°01'0 0.0
2018-May-12 15:00N 46°42' W 092°01'0 0.0
2018-May-12 14:30N 46°42' W 092°01'0 0.1
2018-May-12 14:00N 46°42' W 092°01'3 5.2
2018-May-12 13:30N 46°44' W 091°58'714.4
2018-May-12 13:00N 46°47' W 091°49'714.6
2018-May-12 12:30N 46°50' W 091°39'  
2018-May-10 07:28N 46°50' W 091°42'613.9
2018-May-10 07:00N 46°47' W 091°50'713.9
2018-May-10 06:30N 46°44' W 091°58'3 5.7
2018-May-10 06:00N 46°43' W 092°02'3 5.1
2018-May-10 05:30N 46°44' W 092°05'2 2.7
2018-May-10 04:56N 46°45' W 092°07'1 1.6
2018-May-10 04:26N 46°45' W 092°08'0 0.0
2018-May-10 03:59N 46°45' W 092°08'0 0.0
2018-May-10 03:26N 46°45' W 092°08'0 0.0
2018-May-10 02:59N 46°45' W 092°08'0 0.0
2018-May-10 02:29N 46°45' W 092°08'0 0.0
2018-May-10 01:56N 46°45' W 092°08'0 0.0
2018-May-10 01:29N 46°45' W 092°08'0 0.0
2018-May-10 00:44N 46°45' W 092°08'0 0.0
2018-May-10 00:29N 46°45' W 092°08'0 0.0
2018-May-09 23:59N 46°45' W 092°08'0 0.0
2018-May-09 23:29N 46°45' W 092°08'0 0.0
2018-May-09 22:59N 46°45' W 092°08'0 0.0
2018-May-09 22:29N 46°45' W 092°08'0 0.0
2018-May-09 21:47N 46°45' W 092°08'0 0.0
2018-May-09 21:29N 46°45' W 092°08'0 0.0
2018-May-09 20:59N 46°45' W 092°08'0 0.0
2018-May-09 20:29N 46°45' W 092°08'0 0.0
2018-May-09 19:20N 46°45' W 092°08'0 0.0
2018-May-09 18:50N 46°45' W 092°08'0 0.0
2018-May-09 18:17N 46°45' W 092°08'0 0.0
2018-May-09 17:53N 46°45' W 092°08'0 0.0
2018-May-09 17:20N 46°45' W 092°08'0 0.0
2018-May-09 16:53N 46°45' W 092°08'0 0.6
2018-May-09 16:23N 46°45' W 092°08'1 2.2
2018-May-09 16:00N 46°45' W 092°07'1 2.1
2018-May-09 15:20N 46°46' W 092°06'0 0.0
2018-May-09 14:56N 46°46' W 092°06'0 0.0
2018-May-09 14:23N 46°46' W 092°06'0 0.0
2018-May-09 13:53N 46°46' W 092°06'0 0.0
2018-May-09 13:26N 46°46' W 092°06'0 0.0
2018-May-09 12:53N 46°46' W 092°06'0 0.0
2018-May-09 12:20N 46°46' W 092°06'0 0.0
2018-May-09 11:53N 46°46' W 092°06'0 0.0
2018-May-09 11:26N 46°46' W 092°06'0 0.0
2018-May-09 10:59N 46°46' W 092°06'0 0.0
2018-May-09 10:26N 46°46' W 092°06'0 0.0
2018-May-09 09:53N 46°46' W 092°06'0 0.0
2018-May-09 09:23N 46°46' W 092°06'0 0.0
2018-May-09 08:59N 46°46' W 092°06'0 0.0
2018-May-09 08:29N 46°46' W 092°06'0 0.0
2018-May-09 07:59N 46°46' W 092°06'0 0.0
2018-May-09 07:29N 46°46' W 092°06'0 0.0
2018-May-09 07:00N 46°46' W 092°06'0 0.1
2018-May-09 06:30N 46°46' W 092°06'0 0.5
2018-May-09 06:00N 46°46' W 092°06'1 2.7
2018-May-09 05:30N 46°47' W 092°05'2 3.5
2018-May-09 05:00N 46°48' W 092°02'2 3.9
2018-May-09 04:30N 46°48' W 091°60'613.1
2018-May-09 04:00N 46°51' W 091°51'  

Dump ship's entire track history